Saginaw, Michigan
Current Conditions -  °F | °C
As of 7:35 AM on Saturday 25 Oct 2014 (Local Time) from KHYX Reporting Station
Broken Clouds Broken Clouds  
Wind Chill: 50°   Ceiling: 4100
Heat Index: 50°   Visibility: 7mi
Dew Point: 50°   Wind: 8mph
Humidity: 100%   Direction: 230°SW
Pressure: 29.79"   Gusts: NA
Location:  43.42°N, 83.95°W
Report Text: KHYX 251135Z AUTO 23007KT 7SM SCT034 BKN041 BKN048 10/10 A2979 RMK AO2
Loading
Personal Weather Stations






























Interactive Weather Map
Tropical Storm Tracking
New forecast layout! Learn more

10-Day Weather Forecast

Advertisements
Track Severe Weather on mobile